Time;durP1;ratioP1;P1;durP2;ratioP2;P2;SDS_P1;SDS_P2;PMS_P1;PMS_P2;Temp;Humidity;BMP_temperature;BMP_pressure;BME280_temperature;BME280_humidity;BME280_pressure;Samples;Min_cycle;Max_cycle;Signal;HPM_P1;HPM_P2
2023/03/14 00:00:33;;;;;;;12.43;9.13;;;;;;;;;;5077489;28;20410;-83
2023/03/14 00:02:59;;;;;;;13.90;8.87;;;;;;;;;;5073915;28;20616;-85
2023/03/14 00:05:25;;;;;;;14.10;8.80;;;;;;;;;;5074005;28;20451;-85
2023/03/14 00:07:51;;;;;;;12.73;8.98;;;;;;;;;;5073735;28;20759;-87
2023/03/14 00:10:17;;;;;;;12.45;9.13;;;9.60;86.70;;;;;;5075062;28;20262;-84
2023/03/14 00:12:43;;;;;;;13.07;10.20;;;9.40;86.30;;;;;;5073642;28;20553;-87
2023/03/14 00:15:10;;;;;;;14.60;8.70;;;;;;;;;;5073578;28;20229;-85
2023/03/14 00:17:36;;;;;;;14.27;9.90;;;9.40;86.40;;;;;;5073630;28;20201;-87
2023/03/14 00:20:05;;;;;;;18.80;10.32;;;;;;;;;;5075446;28;20181;-87
2023/03/14 00:22:32;;;;;;;13.40;10.93;;;;;;;;;;5074686;28;20753;-85
2023/03/14 00:24:58;;;;;;;12.15;9.35;;;;;;;;;;5074770;28;20695;-85
2023/03/14 00:27:24;;;;;;;10.82;9.40;;;;;;;;;;5073464;28;20220;-88
2023/03/14 00:29:50;;;;;;;12.38;9.27;;;;;;;;;;5073550;28;20216;-87
2023/03/14 00:32:16;;;;;;;13.27;9.25;;;9.30;86.20;;;;;;5073306;28;20220;-87
2023/03/14 00:34:42;;;;;;;14.90;9.77;;;;;;;;;;5075079;28;20173;-86
2023/03/14 00:37:08;;;;;;;10.53;9.00;;;9.20;87.10;;;;;;5073329;28;20291;-85
2023/03/14 00:39:33;;;;;;;12.03;9.30;;;9.00;87.40;;;;;;5073551;28;20930;-85
2023/03/14 00:41:59;;;;;;;13.27;8.73;;;9.00;87.90;;;;;;5076521;28;20193;-85
2023/03/14 00:44:25;;;;;;;12.27;9.07;;;9.00;88.00;;;;;;5076887;28;20173;-83
2023/03/14 00:46:50;;;;;;;13.47;10.17;;;9.00;88.00;;;;;;5076871;28;20173;-84
2023/03/14 00:49:16;;;;;;;12.33;9.17;;;8.90;88.10;;;;;;5077893;28;20260;-87
2023/03/14 00:51:42;;;;;;;12.30;9.80;;;8.90;88.50;;;;;;5073796;28;20219;-86
2023/03/14 00:54:07;;;;;;;12.93;10.17;;;8.90;88.60;;;;;;5074592;28;20199;-84
2023/03/14 00:56:33;;;;;;;14.07;10.10;;;8.90;88.60;;;;;;5074220;28;20641;-86
2023/03/14 00:58:58;;;;;;;14.50;10.10;;;8.90;89.00;;;;;;5074436;28;20230;-85
2023/03/14 01:01:24;;;;;;;13.83;10.30;;;8.90;89.30;;;;;;5074214;28;20181;-85
2023/03/14 01:03:54;;;;;;;14.17;9.70;;;8.90;89.20;;;;;;5074036;28;20314;-86
2023/03/14 01:06:23;;;;;;;13.52;9.95;;;8.90;89.60;;;;;;5074142;28;20186;-87
2023/03/14 01:08:49;;;;;;;8.82;6.60;;;8.80;90.20;;;;;;5074189;28;20590;-87
2023/03/14 01:11:19;;;;;;;10.35;9.25;;;8.70;90.00;;;;;;5074471;28;20212;-86
2023/03/14 01:13:45;;;;;;;12.20;9.90;;;8.70;90.10;;;;;;5075240;28;20651;-84
2023/03/14 01:16:13;;;;;;;13.65;10.05;;;8.70;90.30;;;;;;5073946;28;20169;-86
2023/03/14 01:18:40;;;;;;;14.00;10.55;;;8.60;90.40;;;;;;5074056;28;20220;-85
2023/03/14 01:21:30;;;;;;;13.40;10.25;;;8.60;90.40;;;;;;5074116;28;20212;-86
2023/03/14 01:23:57;;;;;;;13.30;9.90;;;8.60;90.40;;;;;;5072728;28;20277;-86
2023/03/14 01:26:24;;;;;;;14.25;10.35;;;8.60;90.50;;;;;;5073931;28;20209;-85
2023/03/14 01:28:52;;;;;;;14.77;9.95;;;8.60;90.50;;;;;;5073925;28;20250;-85
2023/03/14 01:31:18;;;;;;;15.98;10.93;;;8.60;90.60;;;;;;5072431;28;20258;-86
2023/03/14 01:33:43;;;;;;;13.20;10.00;;;8.50;90.60;;;;;;5073991;28;20205;-87
2023/03/14 01:36:10;;;;;;;17.20;11.20;;;8.50;90.70;;;;;;5072497;28;20417;-83
2023/03/14 01:38:38;;;;;;;15.02;11.75;;;8.60;90.80;;;;;;5073923;28;20197;-86
2023/03/14 01:41:05;;;;;;;12.52;9.50;;;8.60;90.80;;;;;;5073736;28;20180;-86
2023/03/14 01:43:31;;;;;;;10.88;9.52;;;8.60;90.80;;;;;;5072348;28;20292;-85
2023/03/14 01:46:05;;;;;;;12.33;9.80;;;8.50;90.90;;;;;;5072406;28;20262;-85
2023/03/14 01:48:56;;;;;;;18.10;10.43;;;8.60;91.00;;;;;;5072337;28;20203;-84
2023/03/14 01:51:29;;;;;;;11.73;9.57;;;8.60;91.00;;;;;;5073452;28;20208;-85
2023/03/14 01:54:04;;;;;;;13.80;10.40;;;8.60;90.90;;;;;;5072181;28;20201;-84
2023/03/14 01:56:31;;;;;;;11.20;9.20;;;8.60;91.10;;;;;;5072260;28;20199;-85
2023/03/14 01:58:59;;;;;;;12.60;9.57;;;8.60;91.00;;;;;;5073731;28;20197;-86
2023/03/14 02:01:26;;;;;;;13.48;9.10;;;8.60;91.10;;;;;;5073500;28;20177;-86
2023/03/14 02:03:59;;;;;;;12.02;9.40;;;8.70;91.10;;;;;;5072292;28;20200;-85
2023/03/14 02:06:31;;;;;;;11.90;9.77;;;8.70;91.10;;;;;;5072264;28;20191;-87
2023/03/14 02:08:57;;;;;;;10.52;9.07;;;8.60;91.20;;;;;;5073902;28;20199;-85
2023/03/14 02:11:28;;;;;;;11.60;9.75;;;8.60;91.20;;;;;;5073717;28;20305;-86
2023/03/14 02:13:55;;;;;;;11.63;8.82;;;8.60;91.40;;;;;;5077096;28;20228;-84
2023/03/14 02:16:21;;;;;;;10.38;9.15;;;8.60;91.30;;;;;;5077727;28;20177;-87
2023/03/14 02:18:47;;;;;;;12.27;9.37;;;8.60;91.40;;;;;;5079163;28;20208;-85
2023/03/14 02:21:25;;;;;;;12.63;9.02;;;8.60;91.50;;;;;;5078823;28;20178;-84
2023/03/14 02:24:27;;;;;;;11.00;9.68;;;8.60;91.40;;;;;;5077818;28;20565;-86
2023/03/14 02:27:13;;;;;;;10.50;9.32;;;8.60;91.30;;;;;;5077018;28;20173;-85
2023/03/14 02:29:58;;;;;;;11.90;9.15;;;8.70;91.60;;;;;;5077494;28;20173;-87
2023/03/14 02:32:26;;;;;;;9.65;8.57;;;8.70;91.40;;;;;;5077037;28;20600;-85
2023/03/14 02:34:55;;;;;;;11.65;9.35;;;8.70;91.40;;;;;;5077395;28;20226;-86
2023/03/14 02:37:23;;;;;;;11.00;9.50;;;;;;;;;;5076930;28;20251;-87
2023/03/14 02:39:49;;;;;;;11.00;9.13;;;8.70;91.60;;;;;;5076827;28;20200;-87
2023/03/14 02:42:15;;;;;;;10.90;9.70;;;8.70;91.60;;;;;;5075563;28;20209;-87
2023/03/14 02:45:07;;;;;;;11.50;9.25;;;8.60;91.70;;;;;;5077252;28;20388;-85
2023/03/14 02:47:34;;;;;;;11.82;9.73;;;8.70;91.70;;;;;;5067358;28;20299;-85
2023/03/14 02:50:05;;;;;;;11.70;8.73;;;8.60;91.80;;;;;;5077269;28;20615;-85
2023/03/14 02:52:31;;;;;;;10.57;8.48;;;;;;;;;;5075335;28;20406;-84
2023/03/14 02:54:56;;;;;;;10.20;8.70;;;8.60;91.70;;;;;;5077164;28;20646;-87
2023/03/14 02:57:22;;;;;;;13.53;9.57;;;8.60;91.90;;;;;;5076557;28;20433;-85
2023/03/14 02:59:48;;;;;;;11.33;9.10;;;8.60;92.00;;;;;;5075408;28;20279;-86
2023/03/14 03:02:14;;;;;;;11.30;9.60;;;;;;;;;;5076417;28;20201;-84
2023/03/14 03:04:40;;;;;;;12.45;9.80;;;;;;;;;;5075354;28;20169;-84
2023/03/14 03:07:06;;;;;;;11.52;8.70;;;8.60;92.00;;;;;;5076247;28;20215;-84
2023/03/14 03:09:31;;;;;;;10.00;8.63;;;8.60;92.10;;;;;;5076675;28;20177;-86
2023/03/14 03:11:57;;;;;;;10.33;8.20;;;8.60;92.20;;;;;;5074875;28;20585;-84
2023/03/14 03:14:23;;;;;;;9.67;8.00;;;;;;;;;;5075889;28;20458;-88
2023/03/14 03:16:49;;;;;;;12.27;9.13;;;;;;;;;;5076219;28;20242;-85
2023/03/14 03:19:17;;;;;;;10.70;8.80;;;8.60;92.10;;;;;;5076534;28;20637;-86
2023/03/14 03:21:43;;;;;;;12.38;8.93;;;8.60;92.30;;;;;;5074818;28;20181;-85
2023/03/14 03:24:09;;;;;;;10.33;8.30;;;8.60;92.30;;;;;;5074708;28;20173;-87
2023/03/14 03:26:36;;;;;;;10.00;8.70;;;8.60;92.30;;;;;;5073830;28;20454;-87
2023/03/14 03:29:02;;;;;;;10.70;8.05;;;8.60;92.30;;;;;;5074601;28;20268;-85
2023/03/14 03:31:28;;;;;;;11.90;9.27;;;8.60;92.40;;;;;;5075826;28;20240;-85
2023/03/14 03:33:54;;;;;;;9.90;8.20;;;8.60;92.30;;;;;;5074425;28;21005;-84
2023/03/14 03:36:25;;;;;;;9.00;7.70;;;8.60;92.40;;;;;;5074614;28;20409;-83
2023/03/14 03:38:50;;;;;;;11.18;8.63;;;8.50;92.60;;;;;;5075967;28;20441;-83
2023/03/14 03:41:16;;;;;;;10.27;7.17;;;8.50;92.60;;;;;;5074513;28;20281;-83
2023/03/14 03:43:42;;;;;;;9.93;7.60;;;8.50;92.70;;;;;;5075602;28;20959;-85
2023/03/14 03:46:08;;;;;;;13.37;8.17;;;8.50;92.70;;;;;;5076816;28;20638;-86
2023/03/14 03:48:35;;;;;;;12.80;8.48;;;8.60;92.70;;;;;;5075430;28;20718;-87
2023/03/14 03:51:00;;;;;;;8.95;7.97;;;8.60;92.70;;;;;;5074257;28;20265;-87
2023/03/14 03:53:26;;;;;;;10.97;8.57;;;8.60;92.70;;;;;;5074246;28;20279;-83
2023/03/14 03:55:52;;;;;;;11.13;9.00;;;8.60;92.60;;;;;;5075497;28;20235;-83
2023/03/14 03:58:18;;;;;;;10.03;8.40;;;8.60;92.60;;;;;;5074144;28;20445;-87
2023/03/14 04:00:44;;;;;;;11.10;8.50;;;8.70;92.50;;;;;;5074002;28;20650;-84
2023/03/14 04:03:10;;;;;;;9.17;7.40;;;;;;;;;;5075197;28;20227;-84
2023/03/14 04:05:36;;;;;;;11.43;8.18;;;;;;;;;;5075193;28;20173;-84
2023/03/14 04:08:02;;;;;;;11.30;7.60;;;;;;;;;;5075133;28;20200;-86
2023/03/14 04:10:29;;;;;;;9.50;8.50;;;8.70;92.40;;;;;;5073842;28;20465;-82
2023/03/14 04:12:54;;;;;;;10.48;8.00;;;8.80;92.70;;;;;;5073746;28;20563;-84
2023/03/14 04:15:20;;;;;;;11.50;8.30;;;;;;;;;;5075228;28;20320;-87
2023/03/14 04:17:46;;;;;;;11.77;7.28;;;8.80;92.70;;;;;;5073648;28;20297;-87
2023/03/14 04:20:12;;;;;;;9.70;7.43;;;8.80;93.20;;;;;;5073807;28;20272;-85
2023/03/14 04:22:39;;;;;;;9.77;7.93;;;8.80;92.90;;;;;;5074819;28;20199;-87
2023/03/14 04:25:05;;;;;;;10.98;8.30;;;8.80;92.90;;;;;;5073840;28;20421;-88
2023/03/14 04:27:31;;;;;;;9.80;7.75;;;8.80;93.00;;;;;;5077558;28;20200;-88
2023/03/14 04:29:57;;;;;;;9.17;7.43;;;8.80;93.10;;;;;;5076156;28;20526;-84
2023/03/14 04:32:23;;;;;;;13.10;8.50;;;8.80;93.00;;;;;;5073521;28;20196;-83
2023/03/14 04:34:48;;;;;;;10.13;7.80;;;8.80;92.90;;;;;;5073777;28;20271;-84
2023/03/14 04:37:14;;;;;;;12.80;7.83;;;8.80;92.90;;;;;;5074411;28;20196;-86
2023/03/14 04:39:40;;;;;;;12.67;8.10;;;8.80;93.00;;;;;;5073605;28;20191;-87
2023/03/14 04:42:05;;;;;;;9.53;7.57;;;8.80;93.10;;;;;;5074552;28;20240;-89
2023/03/14 04:44:31;;;;;;;12.20;7.80;;;8.80;93.00;;;;;;5074470;28;20177;-86
2023/03/14 04:46:57;;;;;;;13.27;7.77;;;8.80;93.10;;;;;;5073127;28;20288;-84
2023/03/14 04:49:23;;;;;;;7.97;6.87;;;8.90;93.00;;;;;;5074753;28;20215;-88
2023/03/14 04:51:50;;;;;;;10.45;7.28;;;8.80;93.10;;;;;;5072833;28;20586;-84
2023/03/14 04:54:17;;;;;;;9.05;7.57;;;8.80;93.10;;;;;;5074614;28;20169;-87
2023/03/14 04:56:43;;;;;;;10.25;7.22;;;8.80;93.00;;;;;;5074203;28;20573;-84
2023/03/14 04:59:08;;;;;;;8.23;6.73;;;8.80;93.00;;;;;;5073156;28;20293;-84
2023/03/14 05:01:34;;;;;;;12.70;9.10;;;8.80;93.10;;;;;;5072789;28;20196;-86
2023/03/14 05:04:00;;;;;;;15.88;8.10;;;8.90;93.10;;;;;;5072672;28;20177;-86
2023/03/14 05:06:26;;;;;;;11.00;7.97;;;8.90;93.30;;;;;;5073993;28;20545;-84
2023/03/14 05:08:52;;;;;;;14.30;7.80;;;9.10;92.80;;;;;;5072783;28;20205;-83
2023/03/14 05:11:18;;;;;;;11.30;7.20;;;9.20;92.70;;;;;;5072651;28;20244;-83
2023/03/14 05:13:44;;;;;;;9.10;7.00;;;9.20;92.90;;;;;;5073597;28;20474;-85
2023/03/14 05:16:10;;;;;;;12.68;8.40;;;9.20;92.60;;;;;;5072557;28;20822;-84
2023/03/14 05:18:36;;;;;;;19.40;11.52;;;9.20;92.60;;;;;;5062539;28;20197;-85
2023/03/14 05:21:03;;;;;;;17.90;10.30;;;9.20;92.60;;;;;;5055727;28;20184;-83
2023/03/14 05:23:29;;;;;;;11.18;8.23;;;9.20;92.50;;;;;;5055458;28;20207;-85
2023/03/14 05:25:54;;;;;;;11.03;8.77;;;9.20;92.60;;;;;;5059867;28;20177;-83
2023/03/14 05:28:20;;;;;;;14.93;8.20;;;9.20;92.60;;;;;;5073704;28;20837;-86
2023/03/14 05:30:46;;;;;;;9.40;7.30;;;9.10;92.70;;;;;;5066741;28;20224;-83
2023/03/14 05:33:12;;;;;;;10.20;8.07;;;9.10;92.70;;;;;;5066518;28;20205;-85
2023/03/14 05:35:38;;;;;;;11.57;9.30;;;9.10;92.70;;;;;;5051600;28;20547;-84
2023/03/14 05:38:03;;;;;;;12.50;7.80;;;9.10;92.70;;;;;;5051190;28;20562;-85
2023/03/14 05:40:29;;;;;;;9.33;7.80;;;9.00;92.90;;;;;;5053623;28;20182;-84
2023/03/14 05:42:55;;;;;;;9.03;8.13;;;8.90;92.90;;;;;;5054356;28;20194;-85
2023/03/14 05:45:20;;;;;;;9.47;7.43;;;9.00;92.80;;;;;;5053614;28;20630;-83
2023/03/14 05:47:47;;;;;;;8.33;7.30;;;9.00;93.00;;;;;;5056374;28;20199;-86
2023/03/14 05:50:12;;;;;;;10.23;8.27;;;8.90;93.00;;;;;;5067691;28;20266;-85
2023/03/14 05:52:38;;;;;;;8.53;7.57;;;8.90;92.90;;;;;;5071397;28;20601;-88
2023/03/14 05:55:04;;;;;;;11.80;8.10;;;9.00;93.00;;;;;;5069920;28;20268;-86
2023/03/14 05:57:30;;;;;;;10.00;7.93;;;8.90;92.90;;;;;;5058542;28;20208;-84
2023/03/14 05:59:56;;;;;;;12.50;8.67;;;9.00;92.90;;;;;;5053801;28;20178;-86
2023/03/14 06:02:21;;;;;;;8.33;6.97;;;8.90;92.90;;;;;;5065082;28;20690;-83
2023/03/14 06:04:47;;;;;;;10.50;7.07;;;9.00;92.90;;;;;;5065869;28;20198;-85
2023/03/14 06:07:13;;;;;;;10.33;7.47;;;9.00;93.40;;;;;;5070378;28;20294;-84
2023/03/14 06:09:39;;;;;;;8.80;7.90;;;9.00;92.90;;;;;;5073645;28;20185;-86
2023/03/14 06:12:06;;;;;;;11.55;7.50;;;9.10;92.90;;;;;;5059343;28;20307;-87
2023/03/14 06:14:31;;;;;;;9.57;8.05;;;9.20;92.90;;;;;;5051804;28;20229;-86
2023/03/14 06:16:58;;;;;;;11.30;7.87;;;9.30;92.80;;;;;;5067381;28;20201;-86
2023/03/14 06:19:25;;;;;;;12.80;9.25;;;9.30;92.90;;;;;;5073287;28;20210;-86
2023/03/14 06:21:51;;;;;;;11.60;8.40;;;9.40;92.70;;;;;;5062024;28;20189;-83
2023/03/14 06:24:16;;;;;;;10.45;8.23;;;9.40;92.50;;;;;;5052582;28;20232;-82
2023/03/14 06:26:42;;;;;;;13.67;8.20;;;9.40;92.50;;;;;;5047962;28;20724;-88
2023/03/14 06:29:08;;;;;;;9.17;8.10;;;9.30;92.60;;;;;;5064733;28;20192;-83
2023/03/14 06:31:34;;;;;;;10.88;8.07;;;9.30;92.70;;;;;;5068095;28;20220;-83
2023/03/14 06:34:00;;;;;;;9.53;7.60;;;9.30;92.60;;;;;;5068048;28;20180;-86
2023/03/14 06:36:26;;;;;;;10.73;8.40;;;9.40;92.50;;;;;;5060094;28;20529;-86
2023/03/14 06:38:51;;;;;;;10.37;7.97;;;9.40;92.60;;;;;;5050050;28;20224;-83
2023/03/14 06:41:17;;;;;;;12.63;8.87;;;9.50;92.60;;;;;;5059706;28;20368;-85
2023/03/14 06:43:46;;;;;;;10.40;8.80;;;9.50;92.60;;;;;;5071614;28;20449;-86
2023/03/14 06:46:12;;;;;;;11.93;9.23;;;9.50;92.40;;;;;;5063268;28;20193;-86
2023/03/14 06:48:38;;;;;;;7.83;5.43;;;;;;;;;;5056557;28;20255;-86
2023/03/14 06:51:03;;;;;;;13.05;7.72;;;9.60;92.30;;;;;;5067468;28;20213;-83
2023/03/14 06:53:29;;;;;;;12.20;9.83;;;9.60;92.40;;;;;;5074247;28;20228;-85
2023/03/14 06:55:55;;;;;;;10.53;8.83;;;9.60;92.20;;;;;;5052431;28;20194;-84
2023/03/14 06:58:20;;;;;;;12.40;8.40;;;9.70;92.40;;;;;;5063859;28;20533;-83
2023/03/14 07:00:46;;;;;;;14.43;8.50;;;9.80;92.50;;;;;;5065725;28;20192;-84
2023/03/14 07:03:13;;;;;;;11.70;8.93;;;9.80;92.30;;;;;;5089369;28;20208;-83
2023/03/14 07:05:40;;;;;;;11.35;8.13;;;9.80;92.00;;;;;;5070603;28;20211;-86
2023/03/14 07:08:06;;;;;;;13.57;8.65;;;9.90;92.10;;;;;;5070193;28;20276;-85
2023/03/14 07:10:32;;;;;;;10.82;8.75;;;;;;;;;;5071867;28;20271;-85
2023/03/14 07:12:58;;;;;;;10.88;9.02;;;9.90;92.30;;;;;;5066520;28;20204;-86
2023/03/14 07:15:24;;;;;;;13.20;9.03;;;;;;;;;;5069212;28;20229;-83
2023/03/14 07:17:50;;;;;;;12.18;7.97;;;;;;;;;;5069339;28;20198;-81
2023/03/14 07:20:16;;;;;;;12.00;8.65;;;10.10;92.00;;;;;;5063478;28;20180;-77
2023/03/14 07:22:42;;;;;;;13.45;8.35;;;;;;;;;;5068332;28;20842;-82
2023/03/14 07:25:12;;;;;;;10.55;9.43;;;;;;;;;;5066969;28;20189;-81
2023/03/14 07:27:38;;;;;;;9.57;8.25;;;;;;;;;;5048340;28;20196;-82
2023/03/14 07:30:04;;;;;;;10.13;7.45;;;10.30;91.80;;;;;;5067244;28;20185;-81
2023/03/14 07:32:39;;;;;;;10.10;8.80;;;;;;;;;;5065003;28;20212;-83
2023/03/14 07:35:06;;;;;;;10.32;7.70;;;;;;;;;;5062236;28;20214;-79
2023/03/14 07:37:31;;;;;;;13.02;8.60;;;10.40;91.50;;;;;;5071765;28;20216;-84
2023/03/14 07:39:57;;;;;;;16.00;14.30;;;;;;;;;;5065918;28;20181;-85
2023/03/14 07:42:23;;;;;;;17.40;15.50;;;;;;;;;;5072007;28;20205;-84
2023/03/14 07:44:49;;;;;;;14.23;9.13;;;;;;;;;;5071535;28;20467;-82
2023/03/14 07:47:18;;;;;;;9.57;8.35;;;10.70;91.30;;;;;;5063792;28;20210;-82
2023/03/14 07:49:44;;;;;;;10.63;8.90;;;;;;;;;;5051902;28;20269;-82
2023/03/14 07:52:12;;;;;;;12.27;8.40;;;;;;;;;;5066308;28;20354;-83
2023/03/14 07:54:38;;;;;;;10.32;7.75;;;;;;;;;;5066562;28;20234;-81
2023/03/14 07:57:03;;;;;;;12.23;8.17;;;10.80;91.40;;;;;;5067519;28;20196;-82
2023/03/14 07:59:30;;;;;;;11.60;9.17;;;11.20;91.30;;;;;;5063772;28;20449;-81
2023/03/14 08:01:55;;;;;;;12.05;9.85;;;11.30;91.10;;;;;;5056633;28;20250;-79
2023/03/14 08:04:21;;;;;;;11.60;8.60;;;11.40;90.80;;;;;;5053549;28;20181;-81
2023/03/14 08:06:47;;;;;;;13.00;9.70;;;11.40;91.00;;;;;;5054521;28;20227;-83
2023/03/14 08:09:12;;;;;;;10.30;8.67;;;11.50;90.90;;;;;;5059835;28;20185;-82
2023/03/14 08:11:38;;;;;;;11.47;9.10;;;11.60;90.80;;;;;;5068530;28;20217;-79
2023/03/14 08:14:03;;;;;;;11.50;10.37;;;11.70;91.20;;;;;;5070102;28;20228;-79
2023/03/14 08:16:29;;;;;;;12.03;8.33;;;11.90;90.80;;;;;;5065360;28;20268;-79
2023/03/14 08:18:56;;;;;;;10.97;9.60;;;12.00;90.80;;;;;;5072809;28;20720;-81
2023/03/14 08:21:21;;;;;;;11.77;9.53;;;12.30;90.90;;;;;;5062271;28;20334;-78
2023/03/14 08:23:47;;;;;;;11.70;8.90;;;12.70;90.40;;;;;;5066965;28;20453;-80
2023/03/14 08:26:13;;;;;;;14.87;9.50;;;13.20;89.50;;;;;;5070106;28;20441;-79
2023/03/14 08:28:39;;;;;;;9.93;8.60;;;13.70;88.30;;;;;;5071824;28;20205;-78
2023/03/14 08:31:05;;;;;;;13.47;9.33;;;14.40;88.40;;;;;;5069655;28;20303;-80
2023/03/14 08:33:31;;;;;;;9.90;7.80;;;;;;;;;;5061340;28;20457;-81
2023/03/14 08:35:58;;;;;;;11.90;8.07;;;;;;;;;;5065045;28;20452;-78
2023/03/14 08:38:24;;;;;;;8.20;7.10;;;;;;;;;;5064040;28;20974;-83
2023/03/14 08:40:55;;;;;;;9.00;7.73;;;;;;;;;;5066473;28;20437;-80
2023/03/14 08:43:21;;;;;;;9.57;8.67;;;;;;;;;;5068082;28;20772;-82
2023/03/14 08:45:47;;;;;;;11.37;7.23;;;;;;;;;;5058861;28;20920;-81
2023/03/14 08:48:13;;;;;;;9.10;8.20;;;;;;;;;;5061575;28;20467;-82
2023/03/14 08:50:39;;;;;;;8.57;6.53;;;;;;;;;;5063815;28;20483;-79
2023/03/14 08:53:05;;;;;;;13.07;9.00;;;;;;;;;;5067818;28;20453;-77
2023/03/14 08:55:31;;;;;;;8.90;8.00;;;;;;;;;;5069267;28;20442;-84
2023/03/14 08:57:57;;;;;;;9.03;8.10;;;;;;;;;;5067351;28;21013;-83
2023/03/14 09:00:23;;;;;;;12.83;8.47;;;;;;;;;;5061327;28;20516;-79
2023/03/14 09:02:50;;;;;;;8.90;7.93;;;;;;;;;;5063264;28;20934;-81
2023/03/14 09:05:16;;;;;;;11.40;7.50;;;;;;;;;;5066671;28;20433;-78
2023/03/14 09:07:43;;;;;;;11.53;8.30;;;;;;;;;;5059546;28;20436;-82
2023/03/14 09:10:09;;;;;;;12.27;9.20;;;;;;;;;;5057738;28;20427;-80
2023/03/14 09:12:36;;;;;;;9.87;8.03;;;;;;;;;;5058235;28;20438;-81
2023/03/14 09:15:02;;;;;;;9.63;7.60;;;15.10;87.30;;;;;;5055148;28;21129;-79
2023/03/14 09:17:28;;;;;;;10.47;7.37;;;;;;;;;;5059552;28;20464;-82
2023/03/14 09:19:54;;;;;;;10.20;8.47;;;18.50;75.60;;;;;;5058112;28;20492;-79
2023/03/14 09:22:20;;;;;;;9.87;8.00;;;18.20;76.50;;;;;;5059201;28;20477;-77
2023/03/14 09:24:46;;;;;;;10.97;8.23;;;18.50;76.00;;;;;;5060778;28;20938;-87
2023/03/14 09:27:12;;;;;;;12.60;7.17;;;18.80;75.50;;;;;;5055270;28;20448;-84
2023/03/14 09:29:38;;;;;;;9.33;7.30;;;18.70;75.00;;;;;;5054786;28;20440;-83
2023/03/14 09:32:04;;;;;;;8.70;7.80;;;18.70;75.10;;;;;;5056866;28;20508;-79
2023/03/14 09:34:29;;;;;;;11.40;7.60;;;18.70;75.30;;;;;;5056497;28;20211;-78
2023/03/14 09:36:55;;;;;;;10.10;7.50;;;18.90;76.30;;;;;;5050827;28;20288;-79
2023/03/14 09:39:21;;;;;;;10.70;7.67;;;19.10;75.20;;;;;;5052176;28;20194;-78
2023/03/14 09:41:50;;;;;;;8.50;7.60;;;19.30;75.10;;;;;;5056159;28;20433;-79
2023/03/14 09:44:30;;;;;;;8.30;7.50;;;19.60;74.70;;;;;;5060167;28;20285;-81
2023/03/14 09:47:00;;;;;;;9.00;7.70;;;19.70;73.80;;;;;;5064487;28;20445;-83
2023/03/14 09:49:40;;;;;;;8.73;7.77;;;19.60;74.00;;;;;;5057833;28;20441;-82
2023/03/14 09:52:31;;;;;;;8.70;7.90;;;19.30;74.50;;;;;;5076703;28;20480;-81
2023/03/14 09:55:02;;;;;;;11.90;7.57;;;19.30;75.60;;;;;;5065436;28;20669;-81
2023/03/14 09:57:28;;;;;;;10.20;6.90;;;19.60;76.10;;;;;;5057139;28;21600;-81
2023/03/14 09:59:58;;;;;;;13.67;7.40;;;19.80;74.70;;;;;;5058117;28;21231;-86
2023/03/14 10:02:31;;;;;;;7.90;7.10;;;19.70;75.00;;;;;;5055110;28;20512;-86
2023/03/14 10:04:57;;;;;;;11.17;7.80;;;19.50;75.10;;;;;;5069325;28;20942;-86
2023/03/14 10:07:30;;;;;;;8.93;7.60;;;19.50;75.50;;;;;;5058600;28;20477;-83
2023/03/14 10:09:56;;;;;;;9.50;7.53;;;19.30;76.10;;;;;;5061337;28;20529;-88
2023/03/14 10:12:34;;;;;;;8.90;7.97;;;19.10;75.50;;;;;;5057933;28;21242;-87
2023/03/14 10:15:04;;;;;;;10.17;8.00;;;18.80;76.20;;;;;;5062396;28;20751;-86
2023/03/14 10:17:41;;;;;;;7.90;7.20;;;18.60;76.60;;;;;;5055621;28;20453;-89
2023/03/14 10:20:27;;;;;;;8.80;7.30;;;18.40;77.20;;;;;;5054570;28;20433;-89
2023/03/14 10:22:53;;;;;;;9.50;6.50;;;18.30;77.60;;;;;;5043468;28;21272;-84
2023/03/14 10:25:29;;;;;;;10.63;7.63;;;18.30;78.10;;;;;;5042695;28;20507;-86
2023/03/14 10:27:55;;;;;;;10.10;7.30;;;;;;;;;;5058347;28;20435;-87
2023/03/14 10:30:43;;;;;;;10.70;8.77;;;;;;;;;;5060850;28;20640;-85
2023/03/14 10:33:10;;;;;;;9.13;8.10;;;;;;;;;;5060573;28;20906;-87
2023/03/14 10:35:37;;;;;;;8.50;7.20;;;;;;;;;;5061782;28;20522;-89
2023/03/14 10:38:04;;;;;;;8.30;7.50;;;;;;;;;;5057289;28;20439;-85
2023/03/14 10:40:40;;;;;;;11.10;8.60;;;;;;;;;;5063311;28;20414;-88
2023/03/14 10:43:10;;;;;;;9.90;7.50;;;;;;;;;;5069040;28;20458;-86
2023/03/14 10:45:43;;;;;;;11.20;8.10;;;;;;;;;;5068059;28;20430;-86
2023/03/14 10:48:20;;;;;;;7.83;7.00;;;;;;;;;;5070142;28;20826;-88
2023/03/14 10:50:49;;;;;;;8.97;7.40;;;;;;;;;;5055869;28;20482;-88
2023/03/14 10:53:18;;;;;;;8.67;7.23;;;;;;;;;;5059040;28;20445;-87
2023/03/14 10:55:45;;;;;;;8.03;7.23;;;;;;;;;;5063043;28;20420;-84
2023/03/14 10:58:18;;;;;;;8.50;7.70;;;;;;;;;;5068327;28;20599;-87
2023/03/14 11:00:46;;;;;;;6.90;6.30;;;;;;;;;;5069216;28;20791;-87
2023/03/14 11:03:13;;;;;;;8.20;6.83;;;;;;;;;;5071618;28;20462;-87
2023/03/14 11:05:42;;;;;;;10.87;7.57;;;;;;;;;;5062782;28;20426;-85
2023/03/14 11:08:10;;;;;;;9.07;7.77;;;;;;;;;;5070436;28;20447;-87
2023/03/14 11:10:40;;;;;;;8.37;7.27;;;;;;;;;;5059267;28;20480;-85
2023/03/14 11:13:15;;;;;;;9.10;8.07;;;;;;;;;;5063334;28;21030;-86
2023/03/14 11:15:47;;;;;;;11.20;7.40;;;;;;;;;;5059734;28;20518;-87
2023/03/14 11:18:31;;;;;;;9.67;7.97;;;;;;;;;;5059358;28;20867;-87
2023/03/14 11:21:09;;;;;;;9.97;6.63;;;;;;;;;;5060030;28;20453;-88
2023/03/14 11:23:54;;;;;;;7.83;6.80;;;;;;;;;;5065237;28;20445;-88
2023/03/14 11:26:39;;;;;;;9.10;6.47;;;;;;;;;;5059524;28;20536;-84
2023/03/14 11:29:28;;;;;;;10.77;7.40;;;;;;;;;;5061931;28;20427;-85
2023/03/14 11:31:56;;;;;;;7.20;6.50;;;;;;;;;;5057085;28;20490;-84
2023/03/14 11:34:25;;;;;;;8.33;7.20;;;;;;;;;;5064924;28;20452;-85
2023/03/14 11:37:00;;;;;;;10.03;7.10;;;;;;;;;;5064295;28;20465;-85
2023/03/14 11:39:28;;;;;;;126.13;61.23;;;;;;;;;;5052068;28;20437;-83
2023/03/14 11:41:54;;;;;;;8.10;6.43;;;;;;;;;;5063074;28;20465;-86
2023/03/14 11:44:27;;;;;;;9.43;6.30;;;18.20;78.40;;;;;;5064114;28;20430;-88
2023/03/14 11:47:14;;;;;;;10.70;7.03;;;18.00;79.80;;;;;;5058120;28;20439;-87
2023/03/14 11:49:48;;;;;;;9.70;6.67;;;18.00;79.50;;;;;;5077068;28;20428;-85
2023/03/14 11:52:25;;;;;;;7.47;6.33;;;18.00;80.30;;;;;;5057204;28;20485;-84
2023/03/14 11:55:02;;;;;;;9.20;7.27;;;18.00;79.90;;;;;;5062794;28;20442;-85
2023/03/14 11:57:27;;;;;;;7.70;6.70;;;18.00;80.40;;;;;;5065736;28;20929;-86
2023/03/14 12:00:12;;;;;;;12.47;7.47;;;18.20;81.40;;;;;;5062376;28;20566;-88
2023/03/14 12:03:08;;;;;;;8.67;6.50;;;18.40;80.40;;;;;;5064565;28;20200;-86
2023/03/14 12:05:45;;;;;;;12.17;7.50;;;18.60;80.50;;;;;;5078643;28;20443;-85
2023/03/14 12:08:22;;;;;;;9.10;8.07;;;18.80;79.40;;;;;;5060887;28;20467;-85
2023/03/14 12:10:55;;;;;;;9.90;8.83;;;18.80;79.50;;;;;;5059988;28;20557;-87
2023/03/14 12:13:21;;;;;;;10.70;8.93;;;18.80;79.70;;;;;;5063282;28;20451;-84
2023/03/14 12:15:58;;;;;;;10.37;7.30;;;19.00;79.70;;;;;;5062330;28;20438;-87
2023/03/14 12:18:34;;;;;;;11.53;7.60;;;19.10;79.20;;;;;;5062119;28;20551;-87
2023/03/14 12:21:02;;;;;;;15.20;8.90;;;19.20;78.30;;;;;;5066581;28;20443;-86
2023/03/14 12:23:42;;;;;;;12.47;8.87;;;19.20;78.80;;;;;;5062185;28;21008;-88
2023/03/14 12:26:12;;;;;;;9.37;7.57;;;19.30;78.70;;;;;;5064773;28;20428;-89
2023/03/14 12:28:42;;;;;;;8.43;7.07;;;19.50;78.10;;;;;;5064877;28;20489;-90
2023/03/14 12:31:32;;;;;;;8.20;6.40;;;19.50;77.90;;;;;;5067465;28;20484;-90
2023/03/14 12:34:10;;;;;;;12.27;7.43;;;19.50;78.20;;;;;;5066357;28;20447;-88
2023/03/14 12:36:51;;;;;;;9.73;5.50;;;19.50;75.70;;;;;;5067011;28;20437;-87
2023/03/14 12:39:38;;;;;;;6.70;5.80;;;19.40;74.80;;;;;;5059970;28;20444;-86
2023/03/14 12:42:13;;;;;;;9.30;5.57;;;19.30;75.80;;;;;;5060401;28;21074;-87
2023/03/14 12:44:47;;;;;;;9.70;7.00;;;19.20;75.60;;;;;;5059251;28;20833;-88
2023/03/14 12:47:19;;;;;;;10.23;6.03;;;19.10;77.10;;;;;;5057617;28;21045;-86
2023/03/14 12:49:57;;;;;;;7.17;6.10;;;19.10;76.30;;;;;;5061218;28;20502;-91
2023/03/14 12:52:55;;;;;;;7.53;5.80;;;19.20;77.50;;;;;;5063501;28;20488;-89
2023/03/14 12:55:39;;;;;;;9.30;6.93;;;19.30;76.80;;;;;;5043312;28;20445;-87
2023/03/14 12:58:26;;;;;;;8.57;6.50;;;19.40;77.00;;;;;;5057081;28;20604;-87
2023/03/14 13:00:59;;;;;;;8.67;6.43;;;19.50;76.60;;;;;;5062383;28;20453;-87
2023/03/14 13:03:36;;;;;;;9.87;6.20;;;19.60;76.50;;;;;;5063113;28;20456;-86
2023/03/14 13:06:04;;;;;;;6.93;6.20;;;19.70;76.00;;;;;;5052055;28;20862;-86
2023/03/14 13:08:47;;;;;;;6.90;6.10;;;19.70;75.80;;;;;;5061997;28;20976;-89
2023/03/14 13:11:19;;;;;;;12.37;5.53;;;19.80;75.10;;;;;;5067488;28;20505;-88
2023/03/14 13:13:49;;;;;;;4.00;3.40;;;19.70;75.50;;;;;;5069058;28;20481;-89
2023/03/14 13:16:18;;;;;;;6.40;5.20;;;19.70;75.10;;;;;;5062074;28;20429;-88
2023/03/14 13:18:49;;;;;;;5.53;4.03;;;19.70;74.50;;;;;;5063618;28;21240;-90